createdAt,value
2022-12-04T00:01:14.845Z,100039.19
2022-12-04T00:03:41.988Z,100046.13
2022-12-04T00:06:12.388Z,100042.78
2022-12-04T00:08:39.777Z,100046.00
2022-12-04T00:11:07.986Z,100052.69
2022-12-04T00:13:35.573Z,100050.81
2022-12-04T00:16:05.307Z,100050.81
2022-12-04T00:18:32.696Z,100044.28
2022-12-04T00:21:00.388Z,100048.41
2022-12-04T00:23:28.732Z,100055.91
2022-12-04T00:26:00.933Z,100049.59
2022-12-04T00:28:28.045Z,100045.06
2022-12-04T00:30:55.102Z,100051.06
2022-12-04T00:33:23.165Z,100042.25
2022-12-04T00:35:57.492Z,100043.06
2022-12-04T00:38:25.030Z,100042.00
2022-12-04T00:40:53.863Z,100045.44
2022-12-04T00:43:21.370Z,100045.44
2022-12-04T00:45:48.423Z,100043.59
2022-12-04T00:48:15.568Z,100046.94
2022-12-04T00:50:42.627Z,100048.53
2022-12-04T00:53:09.707Z,100047.06
2022-12-04T00:55:38.411Z,100047.84
2022-12-04T00:58:07.916Z,100038.63
2022-12-04T01:00:35.186Z,100040.50
2022-12-04T01:03:02.435Z,100041.16
2022-12-04T01:05:29.504Z,100034.63
2022-12-04T01:07:56.830Z,100037.16
2022-12-04T01:10:24.648Z,100036.34
2022-12-04T01:12:53.908Z,100041.44
2022-12-04T01:15:22.249Z,100035.56
2022-12-04T01:17:49.211Z,100046.63
2022-12-04T01:20:17.258Z,100047.56
2022-12-04T01:22:44.237Z,100043.31
2022-12-04T01:25:11.612Z,100039.00
2022-12-04T01:27:38.775Z,100042.38
2022-12-04T01:30:07.249Z,100041.44
2022-12-04T01:32:35.541Z,100049.84
2022-12-04T01:35:02.540Z,100040.50
2022-12-04T01:37:31.265Z,100038.88
2022-12-04T01:39:58.497Z,100033.69
2022-12-04T01:42:26.091Z,100029.41
2022-12-04T01:45:33.967Z,100033.56
2022-12-04T01:48:09.110Z,100040.50
2022-12-04T01:50:36.361Z,100035.28
2022-12-04T01:53:03.324Z,100036.22
2022-12-04T01:55:31.361Z,100031.25
2022-12-04T01:57:59.047Z,100033.69
2022-12-04T02:00:26.025Z,100031.00
2022-12-04T02:02:53.271Z,100034.50
2022-12-04T02:05:23.036Z,100037.69
2022-12-04T02:07:55.807Z,100035.16
2022-12-04T02:10:29.017Z,100039.44
2022-12-04T02:13:04.082Z,100034.00
2022-12-04T02:15:36.866Z,100037.44
2022-12-04T02:18:10.609Z,100039.84
2022-12-04T02:20:45.537Z,100040.66
2022-12-04T02:23:50.901Z,100041.59
2022-12-04T02:26:33.433Z,100037.69
2022-12-04T02:29:08.150Z,100040.91
2022-12-04T02:31:42.077Z,100045.19
2022-12-04T02:34:14.956Z,100046.25
2022-12-04T02:36:47.946Z,100052.94
2022-12-04T02:39:25.330Z,100056.97
2022-12-04T02:41:57.938Z,100060.44
2022-12-04T02:44:30.968Z,100049.22
2022-12-04T02:47:02.392Z,100050.13
2022-12-04T02:49:34.814Z,100054.31
2022-12-04T02:52:06.112Z,100056.16
2022-12-04T02:54:37.225Z,100049.72
2022-12-04T02:57:10.041Z,100041.56
2022-12-04T02:59:41.153Z,100042.38
2022-12-04T03:02:13.906Z,100039.00
2022-12-04T03:04:42.511Z,100035.69
2022-12-04T03:07:13.914Z,100031.63
2022-12-04T03:09:44.277Z,100040.06
2022-12-04T03:12:16.588Z,100033.91
2022-12-04T03:14:51.272Z,100040.03
2022-12-04T03:17:31.474Z,100048.16
2022-12-04T03:20:01.081Z,100042.66
2022-12-04T03:22:29.629Z,100040.75
2022-12-04T03:24:57.346Z,100041.56
2022-12-04T03:27:30.482Z,100049.59
2022-12-04T03:30:03.317Z,100043.44
2022-12-04T03:32:33.845Z,100043.03
2022-12-04T03:35:05.008Z,100037.16
2022-12-04T03:37:37.554Z,100035.31
2022-12-04T03:40:11.952Z,100032.50
2022-12-04T03:42:44.311Z,100035.19
2022-12-04T03:45:20.284Z,100031.69
2022-12-04T03:47:55.481Z,100029.41
2022-12-04T03:50:28.846Z,100031.53
2022-12-04T03:53:05.503Z,100023.59
2022-12-04T03:55:36.493Z,100030.44
2022-12-04T03:58:08.281Z,100024.66
2022-12-04T04:00:41.523Z,100036.53
2022-12-04T04:03:12.884Z,100034.56
2022-12-04T04:05:45.135Z,100034.19
2022-12-04T04:08:31.158Z,100033.66
2022-12-04T04:11:05.433Z,100040.00
2022-12-04T04:13:56.188Z,100040.66
2022-12-04T04:16:47.292Z,100032.44
2022-12-04T04:19:34.777Z,100030.66
2022-12-04T04:22:22.821Z,100019.41
2022-12-04T04:24:55.145Z,100039.31
2022-12-04T04:27:22.274Z,100039.41
2022-12-04T04:29:52.564Z,100039.41
2022-12-04T04:32:28.972Z,100037.66
2022-12-04T04:35:01.962Z,100030.03
2022-12-04T04:37:35.410Z,100030.16
2022-12-04T04:40:11.853Z,100029.25
2022-12-04T04:42:44.778Z,100036.63
2022-12-04T04:45:15.865Z,100035.31
2022-12-04T04:47:48.868Z,100025.31
2022-12-04T04:50:18.019Z,100032.31
2022-12-04T04:52:49.248Z,100032.47
2022-12-04T04:55:17.881Z,100035.16
2022-12-04T04:57:44.844Z,100026.91
2022-12-04T05:00:16.620Z,100024.63
2022-12-04T05:02:45.383Z,100027.59
2022-12-04T05:05:13.196Z,100034.03
2022-12-04T05:07:40.338Z,100036.19
2022-12-04T05:10:09.316Z,100037.53
2022-12-04T05:12:36.412Z,100030.47
2022-12-04T05:15:03.632Z,100032.72
2022-12-04T05:17:30.617Z,100022.44
2022-12-04T05:19:59.369Z,100041.72
2022-12-04T05:22:29.017Z,100032.19
2022-12-04T05:24:56.255Z,100036.34
2022-12-04T05:27:25.454Z,100033.81
2022-12-04T05:29:54.396Z,100036.22
2022-12-04T05:32:22.309Z,100029.41
2022-12-04T05:34:49.674Z,100035.31
2022-12-04T05:37:18.525Z,100030.22
2022-12-04T05:39:46.001Z,100033.28
2022-12-04T05:42:13.276Z,100031.44
2022-12-04T05:44:40.235Z,100025.41
2022-12-04T05:47:07.722Z,100034.50
2022-12-04T05:49:35.422Z,100037.84
2022-12-04T05:52:03.574Z,100042.94
2022-12-04T05:54:32.121Z,100038.66
2022-12-04T05:56:59.477Z,100047.75
2022-12-04T05:59:26.498Z,100045.09
2022-12-04T06:01:53.825Z,100046.94
2022-12-04T06:04:21.092Z,100052.84
2022-12-04T06:06:48.116Z,100050.03
2022-12-04T06:09:15.175Z,100056.59
2022-12-04T06:11:43.601Z,100057.28
2022-12-04T06:14:13.323Z,100070.66
2022-12-04T06:16:42.821Z,100063.84
2022-12-04T06:19:13.113Z,100062.50
2022-12-04T06:21:42.065Z,100075.47
2022-12-04T06:24:12.565Z,100081.34
2022-12-04T06:26:57.590Z,100084.56
2022-12-04T06:29:28.013Z,100087.09
2022-12-04T06:31:54.997Z,100082.03
2022-12-04T06:34:22.020Z,100071.84
2022-12-04T06:36:49.169Z,100082.19
2022-12-04T06:39:18.956Z,100091.44
2022-12-04T06:41:47.602Z,100094.28
2022-12-04T06:44:15.348Z,100100.00
2022-12-04T06:46:47.114Z,100102.09
2022-12-04T06:49:14.659Z,100093.34
2022-12-04T06:51:41.913Z,100098.59
2022-12-04T06:54:09.665Z,100097.78
2022-12-04T06:56:36.729Z,100092.94
2022-12-04T06:59:04.610Z,100092.38
2022-12-04T07:01:33.744Z,100094.34
2022-12-04T07:04:04.418Z,100096.59
2022-12-04T07:06:33.226Z,100094.06
2022-12-04T07:09:03.162Z,100088.25
2022-12-04T07:11:32.754Z,100101.03
2022-12-04T07:14:00.530Z,100098.91
2022-12-04T07:16:29.471Z,100099.22
2022-12-04T07:18:57.515Z,100100.53
2022-12-04T07:21:28.162Z,100100.66
2022-12-04T07:23:56.922Z,100102.00
2022-12-04T07:26:24.805Z,100108.97
2022-12-04T07:28:52.435Z,100105.78
2022-12-04T07:31:21.742Z,100102.16
2022-12-04T07:33:49.720Z,100096.78
2022-12-04T07:36:19.506Z,100107.50
2022-12-04T07:38:48.342Z,100105.34
2022-12-04T07:41:15.923Z,100120.88
2022-12-04T07:43:43.306Z,100116.59
2022-12-04T07:46:13.813Z,100117.38
2022-12-04T07:48:41.219Z,100107.75
2022-12-04T07:51:10.203Z,100104.66
2022-12-04T07:53:37.962Z,100118.75
2022-12-04T07:56:08.051Z,100129.44
2022-12-04T07:58:35.638Z,100125.97
2022-12-04T08:01:08.133Z,100128.50
2022-12-04T08:03:35.372Z,100118.75
2022-12-04T08:06:02.754Z,100124.50
2022-12-04T08:08:30.097Z,100120.09
2022-12-04T08:10:57.346Z,100116.22
2022-12-04T08:13:26.168Z,100119.66
2022-12-04T08:15:53.278Z,100121.31
2022-12-04T08:18:20.413Z,100116.59
2022-12-04T08:20:48.207Z,100126.00
2022-12-04T08:23:16.330Z,100120.78
2022-12-04T08:25:43.743Z,100114.59
2022-12-04T08:28:12.034Z,100116.63
2022-12-04T08:30:41.101Z,100124.66
2022-12-04T08:33:08.847Z,100118.66
2022-12-04T08:35:37.220Z,100117.28
2022-12-04T08:38:05.509Z,100119.56
2022-12-04T08:40:33.876Z,100118.47
2022-12-04T08:43:01.216Z,100112.59
2022-12-04T08:45:28.662Z,100117.16
2022-12-04T08:47:58.046Z,100112.22
2022-12-04T08:50:25.787Z,100122.53
2022-12-04T08:52:53.442Z,100116.38
2022-12-04T08:55:20.595Z,100111.78
2022-12-04T08:57:48.878Z,100104.97
2022-12-04T09:00:17.493Z,100104.81
2022-12-04T09:02:45.634Z,100105.38
2022-12-04T09:05:14.388Z,100100.81
2022-12-04T09:07:42.126Z,100091.97
2022-12-04T09:10:11.570Z,100092.09
2022-12-04T09:12:39.580Z,100088.78
2022-12-04T09:15:09.150Z,100090.47
2022-12-04T09:17:37.660Z,100091.69
2022-12-04T09:20:07.062Z,100092.50
2022-12-04T09:23:02.420Z,100088.47
2022-12-04T09:25:25.486Z,100075.34
2022-12-04T09:27:53.467Z,100070.53
2022-12-04T09:30:21.269Z,100061.53
2022-12-04T09:32:48.999Z,100062.97
2022-12-04T09:35:17.365Z,100060.25
2022-12-04T09:37:49.748Z,100062.25
2022-12-04T09:40:29.512Z,100052.75
2022-12-04T09:43:05.414Z,100059.56
2022-12-04T09:45:42.940Z,100052.44
2022-12-04T09:48:13.361Z,100048.56
2022-12-04T09:50:44.672Z,100044.44
2022-12-04T09:53:16.953Z,100050.88
2022-12-04T09:55:48.696Z,100038.16
2022-12-04T09:58:22.325Z,100034.50
2022-12-04T10:00:52.392Z,100026.59
2022-12-04T10:03:22.431Z,100030.88
2022-12-04T10:06:00.132Z,100021.88
2022-12-04T10:08:33.184Z,100009.00
2022-12-04T10:11:09.706Z,100010.75
2022-12-04T10:14:02.643Z,100003.06
2022-12-04T10:16:42.898Z,100001.41
2022-12-04T10:19:18.100Z,100006.44
2022-12-04T10:21:58.223Z,99995.25
2022-12-04T10:24:38.577Z,99995.19
2022-12-04T10:27:12.645Z,99984.13
2022-12-04T10:29:43.245Z,99978.56
2022-12-04T10:32:21.582Z,99975.97
2022-12-04T10:34:51.485Z,99971.16
2022-12-04T10:37:19.826Z,99978.00
2022-12-04T10:39:55.345Z,99971.88
2022-12-04T10:42:34.446Z,99975.28
2022-12-04T10:45:02.972Z,99969.03
2022-12-04T10:47:31.467Z,99973.25
2022-12-04T10:50:03.776Z,99965.38
2022-12-04T10:52:32.530Z,99956.72
2022-12-04T10:55:03.416Z,99956.44
2022-12-04T10:57:39.864Z,99955.75
2022-12-04T11:00:28.443Z,99958.84
2022-12-04T11:02:59.817Z,99956.06
2022-12-04T11:05:32.732Z,99955.28
2022-12-04T11:08:04.633Z,99952.56
2022-12-04T11:10:38.056Z,99953.78
2022-12-04T11:13:15.453Z,99941.19
2022-12-04T11:15:46.726Z,99942.56
2022-12-04T11:18:19.708Z,99948.41
2022-12-04T11:20:54.132Z,99950.38
2022-12-04T11:23:23.389Z,99952.91
2022-12-04T11:26:02.108Z,99951.56
2022-12-04T11:28:43.115Z,99950.59
2022-12-04T11:31:18.051Z,99945.59
2022-12-04T11:33:49.208Z,99947.97
2022-12-04T11:36:24.032Z,99939.28
2022-12-04T11:38:54.064Z,99940.03
2022-12-04T11:41:29.720Z,99933.19
2022-12-04T11:44:00.617Z,99938.56
2022-12-04T11:46:32.207Z,99947.03
2022-12-04T11:49:01.145Z,99936.31
2022-12-04T11:51:42.966Z,99932.03
2022-12-04T11:54:23.772Z,99925.25
2022-12-04T11:57:01.523Z,99932.31
2022-12-04T11:59:46.878Z,99924.13
2022-12-04T12:02:35.573Z,99926.19
2022-12-04T12:05:15.608Z,99920.00
2022-12-04T12:07:53.018Z,99921.88
2022-12-04T12:10:30.042Z,99918.84
2022-12-04T12:13:08.254Z,99924.72
2022-12-04T12:15:46.003Z,99924.88
2022-12-04T12:18:32.540Z,99922.69
2022-12-04T12:21:06.369Z,99919.63
2022-12-04T12:23:57.351Z,99911.75
2022-12-04T12:26:31.147Z,99918.41
2022-12-04T12:29:17.944Z,99910.16
2022-12-04T12:32:05.775Z,99915.78
2022-12-04T12:34:40.732Z,99910.69
2022-12-04T12:37:17.581Z,99907.19
2022-12-04T12:39:51.670Z,99915.31
2022-12-04T12:42:27.863Z,99906.38
2022-12-04T12:45:05.274Z,99903.19
2022-12-04T12:47:42.053Z,99903.91
2022-12-04T12:50:17.273Z,99901.50
2022-12-04T12:52:54.117Z,99911.56
2022-12-04T12:55:26.381Z,99904.84
2022-12-04T12:58:02.009Z,99909.44
2022-12-04T13:00:37.207Z,99904.34
2022-12-04T13:03:13.995Z,99916.72
2022-12-04T13:05:47.287Z,99918.31
2022-12-04T13:08:23.442Z,99907.78
2022-12-04T13:10:59.991Z,99910.31
2022-12-04T13:13:31.671Z,99905.22
2022-12-04T13:16:08.365Z,99900.75
2022-12-04T13:18:44.175Z,99896.53
2022-12-04T13:21:29.054Z,99908.47
2022-12-04T13:24:15.714Z,99913.72
2022-12-04T13:26:50.000Z,99915.88
2022-12-04T13:29:32.637Z,99924.47
2022-12-04T13:32:09.790Z,99914.84
2022-12-04T13:34:52.553Z,99912.09
2022-12-04T13:37:35.647Z,99915.16
2022-12-04T13:40:35.220Z,99918.91
2022-12-04T13:43:17.832Z,99920.81
2022-12-04T13:45:48.683Z,99937.72
2022-12-04T13:48:29.379Z,99931.97
2022-12-04T13:51:22.938Z,99942.56
2022-12-04T13:54:03.353Z,99948.59
2022-12-04T13:56:33.004Z,99947.41
2022-12-04T13:59:03.929Z,99929.41
2022-12-04T14:01:44.951Z,99937.84
2022-12-04T14:04:26.302Z,99946.31
2022-12-04T14:06:56.465Z,99947.09
2022-12-04T14:09:29.504Z,99941.22
2022-12-04T14:12:03.948Z,99938.53
2022-12-04T14:14:42.923Z,99951.25
2022-12-04T14:17:20.361Z,99954.31
2022-12-04T14:19:56.305Z,99958.63
2022-12-04T14:22:40.128Z,99954.31
2022-12-04T14:25:21.510Z,99959.41
2022-12-04T14:27:53.684Z,99945.44
2022-12-04T14:30:24.774Z,99954.56
2022-12-04T14:32:59.405Z,99952.84
2022-12-04T14:35:29.225Z,99951.97
2022-12-04T14:37:59.333Z,99951.16
2022-12-04T14:40:28.810Z,99952.13
2022-12-04T14:42:56.102Z,99948.91
2022-12-04T14:45:32.433Z,99947.44
2022-12-04T14:48:17.741Z,99949.34
2022-12-04T14:50:51.924Z,99947.22
2022-12-04T14:53:30.031Z,99951.00
2022-12-04T14:56:07.834Z,99944.88
2022-12-04T14:58:38.587Z,99947.81
2022-12-04T15:01:16.512Z,99954.84
2022-12-04T15:03:46.237Z,99950.44
2022-12-04T15:06:25.946Z,99957.41
2022-12-04T15:09:14.406Z,99955.09
2022-12-04T15:12:04.883Z,99955.47
2022-12-04T15:14:40.809Z,99962.97
2022-12-04T15:17:11.290Z,99948.63
2022-12-04T15:19:39.176Z,99947.31
2022-12-04T15:22:12.089Z,99951.47
2022-12-04T15:24:39.541Z,99955.31
2022-12-04T15:27:07.110Z,99949.25
2022-12-04T15:29:38.261Z,99956.56
2022-12-04T15:32:10.869Z,99958.44
2022-12-04T15:34:42.284Z,99951.09
2022-12-04T15:37:18.853Z,99947.75
2022-12-04T15:39:46.833Z,99955.53
2022-12-04T15:42:17.388Z,99958.22
2022-12-04T15:44:52.622Z,99965.56
2022-12-04T15:47:22.523Z,99967.84
2022-12-04T15:49:49.800Z,99971.03
2022-12-04T15:52:20.633Z,99972.00
2022-12-04T15:54:53.922Z,99971.19
2022-12-04T15:57:26.730Z,99964.75
2022-12-04T15:59:55.200Z,99966.38
2022-12-04T16:02:28.194Z,99961.44
2022-12-04T16:04:55.196Z,99968.00
2022-12-04T16:07:26.705Z,99967.03
2022-12-04T16:10:02.810Z,99959.16
2022-12-04T16:12:32.369Z,99961.47
2022-12-04T16:14:59.343Z,99960.53
2022-12-04T16:17:30.867Z,99965.78
2022-12-04T16:19:59.093Z,99971.16
2022-12-04T16:22:27.518Z,99970.06
2022-12-04T16:24:56.451Z,99974.88
2022-12-04T16:27:25.542Z,99982.53
2022-12-04T16:29:53.237Z,99969.94
2022-12-04T16:32:22.249Z,99983.47
2022-12-04T16:34:49.360Z,99989.22
2022-12-04T16:37:19.347Z,99982.53
2022-12-04T16:39:48.307Z,99996.88
2022-12-04T16:42:18.085Z,99983.47
2022-12-04T16:44:45.353Z,99982.81
2022-12-04T16:47:13.277Z,99984.69
2022-12-04T16:49:41.178Z,99979.75
2022-12-04T16:52:09.587Z,99980.41
2022-12-04T16:54:36.750Z,99968.47
2022-12-04T16:57:05.295Z,99982.66
2022-12-04T16:59:32.809Z,99988.03
2022-12-04T17:02:00.566Z,99982.44
2022-12-04T17:04:27.636Z,99974.81
2022-12-04T17:06:55.205Z,99977.63
2022-12-04T17:09:22.164Z,99974.13
2022-12-04T17:11:49.193Z,99984.19
2022-12-04T17:14:17.547Z,99986.06
2022-12-04T17:16:47.100Z,99981.91
2022-12-04T17:19:14.681Z,99989.69
2022-12-04T17:21:41.918Z,99988.09
2022-12-04T17:24:09.319Z,99995.22
2022-12-04T17:26:36.449Z,99994.69
2022-12-04T17:29:03.889Z,99981.28
2022-12-04T17:31:32.375Z,99981.00
2022-12-04T17:33:59.464Z,99988.66
2022-12-04T17:36:27.889Z,99973.50
2022-12-04T17:38:56.214Z,99977.66
2022-12-04T17:41:24.080Z,99984.50
2022-12-04T17:43:51.093Z,99992.16
2022-12-04T17:46:21.737Z,99990.56
2022-12-04T17:48:51.217Z,99987.84
2022-12-04T17:51:20.744Z,99997.91
2022-12-04T17:53:48.392Z,99991.06
2022-12-04T17:56:18.525Z,99995.88
2022-12-04T17:58:46.179Z,99994.28
2022-12-04T18:01:14.940Z,99988.88
2022-12-04T18:03:43.428Z,99996.91
2022-12-04T18:06:17.561Z,100000.56
2022-12-04T18:08:49.834Z,100003.09
2022-12-04T18:11:18.756Z,100001.78
2022-12-04T18:13:45.727Z,99995.06
2022-12-04T18:16:13.340Z,99992.66
2022-12-04T18:18:40.932Z,99992.66
2022-12-04T18:21:10.713Z,99994.56
2022-12-04T18:23:45.028Z,99997.13
2022-12-04T18:26:13.312Z,99996.31
2022-12-04T18:28:40.287Z,99998.44
2022-12-04T18:31:08.297Z,100002.44
2022-12-04T18:33:36.801Z,99999.06
2022-12-04T18:36:09.428Z,99998.94
2022-12-04T18:38:36.605Z,99998.78
2022-12-04T18:41:06.829Z,99992.63
2022-12-04T18:43:35.093Z,99992.63
2022-12-04T18:46:07.656Z,99997.88
2022-12-04T18:48:35.850Z,100007.94
2022-12-04T18:51:14.111Z,100009.00
2022-12-04T18:53:41.321Z,100009.81
2022-12-04T18:56:09.663Z,100012.63
2022-12-04T18:58:37.053Z,100013.56
2022-12-04T19:01:07.918Z,100006.44
2022-12-04T19:03:35.446Z,100022.41
2022-12-04T19:06:03.164Z,100021.59
2022-12-04T19:08:33.723Z,100015.44
2022-12-04T19:11:06.620Z,100015.72
2022-12-04T19:13:35.372Z,100014.91
2022-12-04T19:16:02.897Z,100016.78
2022-12-04T19:18:30.413Z,100018.41
2022-12-04T19:20:57.753Z,100007.53
2022-12-04T19:23:24.835Z,100021.09
2022-12-04T19:25:56.079Z,100015.19
2022-12-04T19:28:23.822Z,100012.50
2022-12-04T19:30:52.482Z,100021.88
2022-12-04T19:33:19.834Z,100003.25
2022-12-04T19:35:56.405Z,100008.22
2022-12-04T19:38:23.466Z,100019.03
2022-12-04T19:40:50.402Z,100009.53
2022-12-04T19:43:17.431Z,100016.22
2022-12-04T19:45:48.002Z,100017.03
2022-12-04T19:48:16.362Z,100015.44
2022-12-04T19:50:43.458Z,100019.44
2022-12-04T19:53:10.393Z,100015.94
2022-12-04T19:55:37.698Z,100015.25
2022-12-04T19:58:04.754Z,100015.13
2022-12-04T20:00:31.826Z,100022.34
2022-12-04T20:02:58.935Z,100022.06
2022-12-04T20:05:27.382Z,100014.69
2022-12-04T20:07:55.687Z,100017.25
2022-12-04T20:10:22.918Z,100010.56
2022-12-04T20:12:50.373Z,100014.69
2022-12-04T20:15:17.441Z,100013.63
2022-12-04T20:17:44.467Z,100002.50
2022-12-04T20:20:11.818Z,100012.41
2022-12-04T20:22:40.214Z,100012.09
2022-12-04T20:25:07.901Z,100010.50
2022-12-04T20:27:34.986Z,100011.97
2022-12-04T20:30:02.000Z,100013.59
2022-12-04T20:32:28.959Z,100015.19
2022-12-04T20:34:55.960Z,100016.00
2022-12-04T20:37:22.922Z,100012.63
2022-12-04T20:39:51.225Z,100006.06
2022-12-04T20:42:18.458Z,99996.31
2022-12-04T20:44:45.516Z,99992.16
2022-12-04T20:47:12.583Z,99993.09
2022-12-04T20:49:39.629Z,99990.81
2022-12-04T20:52:06.680Z,99992.72
2022-12-04T20:54:41.034Z,99992.31
2022-12-04T20:57:10.507Z,99983.22
2022-12-04T20:59:37.589Z,99986.72
2022-12-04T21:02:04.643Z,99987.69
2022-12-04T21:04:35.139Z,99980.97
2022-12-04T21:07:02.167Z,99987.00
2022-12-04T21:09:29.341Z,99978.41
2022-12-04T21:11:56.639Z,99977.78
2022-12-04T21:14:46.134Z,99967.72
2022-12-04T21:17:18.474Z,99976.31
2022-12-04T21:19:46.473Z,99969.31
2022-12-04T21:22:13.965Z,99968.50
2022-12-04T21:24:42.246Z,99969.97
2022-12-04T21:27:11.565Z,99956.28
2022-12-04T21:29:41.953Z,99973.19
2022-12-04T21:32:09.141Z,99977.22
2022-12-04T21:34:36.137Z,99971.16
2022-12-04T21:37:03.643Z,99963.38
2022-12-04T21:39:30.713Z,99956.66
2022-12-04T21:42:16.012Z,99960.16
2022-12-04T21:44:44.475Z,99961.09
2022-12-04T21:47:11.450Z,99951.06
2022-12-04T21:49:38.605Z,99957.88
2022-12-04T21:52:05.558Z,99956.28
2022-12-04T21:54:32.553Z,99950.53
2022-12-04T21:56:59.519Z,99952.16
2022-12-04T21:59:26.755Z,99954.69
2022-12-04T22:01:55.168Z,99959.94
2022-12-04T22:04:22.557Z,99948.13
2022-12-04T22:06:49.995Z,99947.34
2022-12-04T22:09:17.389Z,99950.66
2022-12-04T22:11:44.413Z,99947.84
2022-12-04T22:14:12.039Z,99948.66
2022-12-04T22:16:42.810Z,99951.88
2022-12-04T22:19:12.437Z,99948.38
2022-12-04T22:21:40.257Z,99947.41
2022-12-04T22:24:08.181Z,99935.34
2022-12-04T22:26:35.238Z,99931.97
2022-12-04T22:29:11.283Z,99938.81
2022-12-04T22:31:49.825Z,99932.78
2022-12-04T22:34:18.221Z,99934.38
2022-12-04T22:36:45.125Z,99933.88
2022-12-04T22:39:12.181Z,99927.31
2022-12-04T22:41:39.394Z,99929.84
2022-12-04T22:44:06.409Z,99926.66
2022-12-04T22:46:33.864Z,99938.75
2022-12-04T22:49:01.213Z,99930.13
2022-12-04T22:51:29.641Z,99930.66
2022-12-04T22:53:57.912Z,99937.91
2022-12-04T22:56:26.781Z,99932.50
2022-12-04T22:58:54.572Z,99938.09
2022-12-04T23:01:23.737Z,99936.22
2022-12-04T23:03:51.224Z,99933.25
2022-12-04T23:06:20.038Z,99934.56
2022-12-04T23:08:48.925Z,99932.03
2022-12-04T23:11:18.248Z,99943.66
2022-12-04T23:13:50.316Z,99941.94
2022-12-04T23:16:20.395Z,99940.50
2022-12-04T23:18:47.896Z,99933.00
2022-12-04T23:21:16.193Z,99941.47
2022-12-04T23:23:46.965Z,99946.44
2022-12-04T23:26:18.735Z,99937.53
2022-12-04T23:28:46.221Z,99942.50
2022-12-04T23:31:13.535Z,99937.13
2022-12-04T23:33:41.023Z,99936.84
2022-12-04T23:36:10.984Z,99944.47
2022-12-04T23:38:39.431Z,99939.06
2022-12-04T23:41:08.674Z,99943.25
2022-12-04T23:43:37.448Z,99943.88
2022-12-04T23:46:10.711Z,99943.88
2022-12-04T23:48:39.040Z,99944.69
2022-12-04T23:51:06.884Z,99936.09
2022-12-04T23:53:33.862Z,99934.50
2022-12-04T23:56:07.081Z,99938.00
2022-12-04T23:58:36.391Z,99933.97
